Map

Track Data

SID SEASON NUMBER BASIN SUBBASIN NAME ISO_TIME NATURE LAT LON WMO_WIND WMO_PRES WMO_AGENCY TRACK_TYPE DIST2LAND LANDFALL IFLAG USA_AGENCY USA_ATCF_ID USA_LAT USA_LON USA_RECORD USA_STATUS USA_WIND USA_PRES USA_SSHS USA_R34_NE USA_R34_SE USA_R34_SW USA_R34_NW USA_R50_NE USA_R50_SE USA_R50_SW USA_R50_NW USA_R64_NE USA_R64_SE USA_R64_SW USA_R64_NW USA_POCI USA_ROCI USA_RMW USA_EYE TOKYO_LAT TOKYO_LON TOKYO_GRADE TOKYO_WIND TOKYO_PRES TOKYO_R50_DIR TOKYO_R50_LONG TOKYO_R50_SHORT TOKYO_R30_DIR TOKYO_R30_LONG TOKYO_R30_SHORT TOKYO_LAND CMA_LAT CMA_LON CMA_CAT CMA_WIND CMA_PRES HKO_LAT HKO_LON HKO_CAT HKO_WIND HKO_PRES NEWDELHI_LAT NEWDELHI_LON NEWDELHI_GRADE NEWDELHI_WIND NEWDELHI_PRES NEWDELHI_CI NEWDELHI_DP NEWDELHI_POCI REUNION_LAT REUNION_LON REUNION_TYPE REUNION_WIND REUNION_PRES REUNION_TNUM REUNION_CI REUNION_RMW REUNION_R34_NE REUNION_R34_SE REUNION_R34_SW REUNION_R34_NW REUNION_R50_NE REUNION_R50_SE REUNION_R50_SW REUNION_R50_NW REUNION_R64_NE REUNION_R64_SE REUNION_R64_SW REUNION_R64_NW BOM_LAT BOM_LON BOM_TYPE BOM_WIND BOM_PRES BOM_TNUM BOM_CI BOM_RMW BOM_R34_NE BOM_R34_SE BOM_R34_SW BOM_R34_NW BOM_R50_NE BOM_R50_SE BOM_R50_SW BOM_R50_NW BOM_R64_NE BOM_R64_SE BOM_R64_SW BOM_R64_NW BOM_ROCI BOM_POCI BOM_EYE BOM_POS_METHOD BOM_PRES_METHOD NADI_LAT NADI_LON NADI_CAT NADI_WIND NADI_PRES WELLINGTON_LAT WELLINGTON_LON WELLINGTON_WIND WELLINGTON_PRES DS824_LAT DS824_LON DS824_STAGE DS824_WIND DS824_PRES TD9636_LAT TD9636_LON TD9636_STAGE TD9636_WIND TD9636_PRES TD9635_LAT TD9635_LON TD9635_WIND TD9635_PRES TD9635_ROCI NEUMANN_LAT NEUMANN_LON NEUMANN_CLASS NEUMANN_WIND NEUMANN_PRES MLC_LAT MLC_LON MLC_CLASS MLC_WIND MLC_PRES USA_GUST BOM_GUST BOM_GUST_PER REUNION_GUST REUNION_GUST_PER USA_SEAHGT USA_SEARAD_NE USA_SEARAD_SE USA_SEARAD_SW USA_SEARAD_NW STORM_SPEED STORM_DIR
1978220N13325 1978 61 NA NA CORA 1978-08-07 12:00:00 TS 13.0000 -35.0000 25 1010 hurdat_atl main 1858 1855 O_____________ hurdat_atl AL061978 13.0000 -35.0000 TD 25 1010 -1 12 289
1978220N13325 1978 61 NA NA CORA 1978-08-07 15:00:00 TS 13.1927 -35.5650 main 1862 1859 P_____________ AL061978 13.1927 -35.5650 TD 25 1010 -1 12 289
1978220N13325 1978 61 NA NA CORA 1978-08-07 18:00:00 TS 13.4000 -36.2000 25 1010 hurdat_atl main 1868 1864 O_____________ hurdat_atl AL061978 13.4000 -36.2000 TD 25 1010 -1 14 288
1978220N13325 1978 61 NA NA CORA 1978-08-07 21:00:00 TS 13.6224 -36.9549 main 1874 1824 P_____________ AL061978 13.6224 -36.9549 TD 25 1009 -1 16 284
1978220N13325 1978 61 NA NA CORA 1978-08-08 00:00:00 TS 13.8000 -37.8000 25 1009 hurdat_atl main 1824 1760 O_____________ hurdat_atl AL061978 13.8000 -37.8000 TD 25 1009 -1 17 278
1978220N13325 1978 61 NA NA CORA 1978-08-08 03:00:00 TS 13.8722 -38.6778 main 1751 1683 P_____________ AL061978 13.8722 -38.6778 TD 27 1008 -1 18 273
1978220N13325 1978 61 NA NA CORA 1978-08-08 06:00:00 TS 13.9000 -39.6000 30 1008 hurdat_atl main 1674 1607 O_____________ hurdat_atl AL061978 13.9000 -39.6000 TD 30 1008 -1 18 273
1978220N13325 1978 61 NA NA CORA 1978-08-08 09:00:00 TS 13.9574 -40.5574 main 1599 1536 P_____________ AL061978 13.9574 -40.5574 TD 40 1005 0 18 273
1978220N13325 1978 61 NA NA CORA 1978-08-08 12:00:00 TS 14.0000 -41.5000 50 1003 hurdat_atl main 1528 1468 O_____________ hurdat_atl AL061978 14.0000 -41.5000 TS 50 1003 0 18 272
1978220N13325 1978 61 NA NA CORA 1978-08-08 15:00:00 TS 14.0070 -42.3651 main 1460 1403 P_____________ AL061978 14.0070 -42.3651 TS 57 996 0 17 270
1978220N13325 1978 61 NA NA CORA 1978-08-08 18:00:00 TS 14.0000 -43.2000 65 990 hurdat_atl main 1403 1349 O_____________ hurdat_atl AL061978 14.0000 -43.2000 HU 65 990 1 16 270
1978220N13325 1978 61 NA NA CORA 1978-08-08 21:00:00 TS 14.0070 -44.0349 main 1349 1299 P_____________ AL061978 14.0070 -44.0349 HU 72 985 1 17 270
1978220N13325 1978 61 NA NA CORA 1978-08-09 00:00:00 TS 14.0000 -44.9000 80 980 hurdat_atl main 1293 1235 O_____________ hurdat_atl AL061978 14.0000 -44.9000 HU 80 980 1 18 269
1978220N13325 1978 61 NA NA CORA 1978-08-09 03:00:00 TS 13.9724 -45.8424 main 1235 1169 P_____________ AL061978 13.9724 -45.8424 HU 80 980 1 18 267
1978220N13325 1978 61 NA NA CORA 1978-08-09 06:00:00 TS 13.9000 -46.8000 80 980 hurdat_atl main 1163 1108 O_____________ hurdat_atl AL061978 13.9000 -46.8000 HU 80 980 1 18 264
1978220N13325 1978 61 NA NA CORA 1978-08-09 09:00:00 TS 13.7719 -47.6924 main 1103 1042 P_____________ AL061978 13.7719 -47.6924 HU 75 984 1 18 260
1978220N13325 1978 61 NA NA CORA 1978-08-09 12:00:00 TS 13.6000 -48.6000 70 988 hurdat_atl main 1037 976 O_____________ hurdat_atl AL061978 13.6000 -48.6000 HU 70 988 1 19 259
1978220N13325 1978 61 NA NA CORA 1978-08-09 15:00:00 TS 13.4071 -49.5700 main 972 912 P_____________ AL061978 13.4071 -49.5700 HU 67 993 1 20 258
1978220N13325 1978 61 NA NA CORA 1978-08-09 18:00:00 TS 13.2000 -50.6000 65 998 hurdat_atl main 908 844 O_____________ hurdat_atl AL061978 13.2000 -50.6000 HU 65 998 1 21 259
1978220N13325 1978 61 NA NA CORA 1978-08-09 21:00:00 TS 12.9999 -51.6999 main 841 790 P_____________ AL061978 12.9999 -51.6999 HU 62 1002 0 22 259
1978220N13325 1978 61 NA NA CORA 1978-08-10 00:00:00 TS 12.8000 -52.8000 60 1006 hurdat_atl main 788 751 O_____________ hurdat_atl AL061978 12.8000 -52.8000 TS 60 1006 0 21 259
1978220N13325 1978 61 NA NA CORA 1978-08-10 03:00:00 TS 12.5845 -53.8150 main 751 681 P_____________ AL061978 12.5845 -53.8150 TS 57 1006 0 20 258
1978220N13325 1978 61 NA NA CORA 1978-08-10 06:00:00 TS 12.4000 -54.8000 55 1007 hurdat_atl main 674 602 O_____________ hurdat_atl AL061978 12.4000 -54.8000 TS 55 1007 0 20 261
1978220N13325 1978 61 NA NA CORA 1978-08-10 09:00:00 TS 12.2771 -55.7998 main 594 498 P_____________ AL061978 12.2771 -55.7998 TS 55 1007 0 20 264
1978220N13325 1978 61 NA NA CORA 1978-08-10 12:00:00 TS 12.2000 -56.8000 55 1007 hurdat_atl main 487 392 O_____________ hurdat_atl AL061978 12.2000 -56.8000 TS 55 1007 0 20 266
1978220N13325 1978 61 NA NA CORA 1978-08-10 15:00:00 TS 12.1421 -57.7924 main 382 295 P_____________ AL061978 12.1421 -57.7924 TS 52 1007 0 20 267
1978220N13325 1978 61 NA NA CORA 1978-08-10 18:00:00 TS 12.1000 -58.8000 50 1008 hurdat_atl main 286 195 O_____________ hurdat_atl AL061978 12.1000 -58.8000 TS 50 1008 0 20 267
1978220N13325 1978 61 NA CS CORA 1978-08-10 21:00:00 TS 12.0424 -59.8575 main 188 147 P_____________ AL061978 12.0424 -59.8575 TS 47 1008 0 21 267
1978220N13325 1978 61 NA CS CORA 1978-08-11 00:00:00 TS 12.0000 -60.9000 45 1008 hurdat_atl main 146 145 O_____________ hurdat_atl AL061978 12.0000 -60.9000 TS 45 1008 0 20 268
1978220N13325 1978 61 NA CS CORA 1978-08-11 03:00:00 TS 11.9844 -61.8575 main 147 145 P_____________ AL061978 11.9844 -61.8575 TS 40 1008 0 19 270
1978220N13325 1978 61 NA CS CORA 1978-08-11 06:00:00 TS 12.0000 -62.8000 35 1008 hurdat_atl main 145 145 O_____________ hurdat_atl AL061978 12.0000 -62.8000 TS 35 1008 0 19 272
1978220N13325 1978 61 NA CS CORA 1978-08-11 09:00:00 TS 12.0497 -63.7924 main 157 157 P_____________ AL061978 12.0497 -63.7924 TS 32 1008 -1 20 273
1978220N13325 1978 61 NA CS CORA 1978-08-11 12:00:00 TS 12.1000 -64.8000 30 1008 hurdat_atl main 180 171 O_____________ hurdat_atl AL061978 12.1000 -64.8000 TD 30 1008 -1 20 271
1978220N13325 1978 61 NA CS CORA 1978-08-11 15:00:00 TS 12.0996 -65.8002 main 169 167 P_____________ AL061978 12.0996 -65.8002 TD 30 1008 -1 20 270
1978220N13325 1978 61 NA CS CORA 1978-08-11 18:00:00 TS 12.1000 -66.8000 30 1009 hurdat_atl main 167 126 O_____________ hurdat_atl AL061978 12.1000 -66.8000 TD 30 1009 -1 20 271
1978220N13325 1978 61 NA CS CORA 1978-08-11 21:00:00 TS 12.1382 -67.7998 main 120 90 P_____________ AL061978 12.1382 -67.7998 TD 30 1009 -1 20 273
1978220N13325 1978 61 NA CS CORA 1978-08-12 00:00:00 TS 12.2000 -68.8000 30 1010 hurdat_atl main 89 O_____________ hurdat_atl AL061978 12.2000 -68.8000 TD 30 1010 -1 20 274

About IBTrACS Database

This database is a web-friendly format of International Best Track Archive for Climate Stewardship (IBTrACS), a global best track data archive curated by NOAA dating back to 1842.

Updated: 2021-10-21